sensor_id;sensor_type;location;lat;lon;timestamp;pressure;altitude;pressure_sealevel;temperature;humidity
41898;BME280;27576;53.366;-1.498;2024-01-30T00:00:54;100315.44;;;9.33;100.00
41898;BME280;27576;53.366;-1.498;2024-01-30T00:03:19;100334.59;;;9.46;100.00
41898;BME280;27576;53.366;-1.498;2024-01-30T00:05:44;100321.53;;;9.39;100.00
41898;BME280;27576;53.366;-1.498;2024-01-30T00:08:10;100304.28;;;9.36;100.00
41898;BME280;27576;53.366;-1.498;2024-01-30T00:10:35;100308.59;;;9.36;100.00
41898;BME280;27576;53.366;-1.498;2024-01-30T00:13:01;100319.06;;;9.46;100.00
41898;BME280;27576;53.366;-1.498;2024-01-30T00:15:27;100312.97;;;9.43;100.00
41898;BME280;27576;53.366;-1.498;2024-01-30T00:17:53;100317.34;;;9.47;100.00
41898;BME280;27576;53.366;-1.498;2024-01-30T00:20:18;100273.06;;;9.24;100.00
41898;BME280;27576;53.366;-1.498;2024-01-30T00:22:44;100332.13;;;9.54;100.00
41898;BME280;27576;53.366;-1.498;2024-01-30T00:25:09;100324.38;;;9.54;100.00
41898;BME280;27576;53.366;-1.498;2024-01-30T00:27:35;100320.97;;;9.55;100.00
41898;BME280;27576;53.366;-1.498;2024-01-30T00:30:00;100281.75;;;9.30;100.00
41898;BME280;27576;53.366;-1.498;2024-01-30T00:32:25;100268.81;;;9.29;100.00
41898;BME280;27576;53.366;-1.498;2024-01-30T00:34:51;100285.38;;;9.40;100.00
41898;BME280;27576;53.366;-1.498;2024-01-30T00:37:16;100308.84;;;9.54;100.00
41898;BME280;27576;53.366;-1.498;2024-01-30T00:39:42;100306.25;;;9.54;100.00
41898;BME280;27576;53.366;-1.498;2024-01-30T00:42:07;100305.34;;;9.49;100.00
41898;BME280;27576;53.366;-1.498;2024-01-30T00:44:35;100297.53;;;9.46;100.00
41898;BME280;27576;53.366;-1.498;2024-01-30T00:47:02;100304.59;;;9.56;100.00
41898;BME280;27576;53.366;-1.498;2024-01-30T00:49:28;100304.59;;;9.56;100.00
41898;BME280;27576;53.366;-1.498;2024-01-30T00:51:53;100299.34;;;9.51;100.00
41898;BME280;27576;53.366;-1.498;2024-01-30T00:54:19;100273.25;;;9.38;100.00
41898;BME280;27576;53.366;-1.498;2024-01-30T00:56:44;100260.22;;;9.30;100.00
41898;BME280;27576;53.366;-1.498;2024-01-30T00:59:11;100301.16;;;9.57;100.00
41898;BME280;27576;53.366;-1.498;2024-01-30T01:01:36;100285.44;;;9.43;100.00
41898;BME280;27576;53.366;-1.498;2024-01-30T01:04:02;100297.63;;;9.52;100.00
41898;BME280;27576;53.366;-1.498;2024-01-30T01:06:27;100266.41;;;9.41;100.00
41898;BME280;27576;53.366;-1.498;2024-01-30T01:08:52;100289.94;;;9.55;100.00
41898;BME280;27576;53.366;-1.498;2024-01-30T01:11:18;100273.38;;;9.44;100.00
41898;BME280;27576;53.366;-1.498;2024-01-30T01:13:43;100282.94;;;9.51;100.00
41898;BME280;27576;53.366;-1.498;2024-01-30T01:16:09;100291.72;;;9.61;100.00
41898;BME280;27576;53.366;-1.498;2024-01-30T01:18:34;100283.03;;;9.55;100.00
41898;BME280;27576;53.366;-1.498;2024-01-30T01:20:59;100256.09;;;9.43;100.00
41898;BME280;27576;53.366;-1.498;2024-01-30T01:23:25;100280.44;;;9.55;100.00
41898;BME280;27576;53.366;-1.498;2024-01-30T01:25:51;100270.00;;;9.51;100.00
41898;BME280;27576;53.366;-1.498;2024-01-30T01:28:16;100250.03;;;9.41;100.00
41898;BME280;27576;53.366;-1.498;2024-01-30T01:30:42;100263.09;;;9.50;100.00
41898;BME280;27576;53.366;-1.498;2024-01-30T01:33:07;100256.13;;;9.46;100.00
41898;BME280;27576;53.366;-1.498;2024-01-30T01:35:34;100266.63;;;9.55;100.00
41898;BME280;27576;53.366;-1.498;2024-01-30T01:37:59;100277.97;;;9.63;100.00
41898;BME280;27576;53.366;-1.498;2024-01-30T01:40:26;100275.38;;;9.63;100.00
41898;BME280;27576;53.366;-1.498;2024-01-30T01:42:53;100252.69;;;9.47;100.00
41898;BME280;27576;53.366;-1.498;2024-01-30T01:45:20;100275.38;;;9.63;100.00
41898;BME280;27576;53.366;-1.498;2024-01-30T01:47:48;100273.59;;;9.61;100.00
41898;BME280;27576;53.366;-1.498;2024-01-30T01:50:16;100232.75;;;9.37;100.00
41898;BME280;27576;53.366;-1.498;2024-01-30T01:52:47;100279.63;;;9.59;100.00
41898;BME280;27576;53.366;-1.498;2024-01-30T01:55:13;100278.78;;;9.61;100.00
41898;BME280;27576;53.366;-1.498;2024-01-30T01:57:39;100262.16;;;9.45;100.00
41898;BME280;27576;53.366;-1.498;2024-01-30T02:00:06;100262.28;;;9.52;100.00
41898;BME280;27576;53.366;-1.498;2024-01-30T02:02:35;100265.69;;;9.50;100.00
41898;BME280;27576;53.366;-1.498;2024-01-30T02:05:01;100263.94;;;9.47;100.00
41898;BME280;27576;53.366;-1.498;2024-01-30T02:07:27;100246.53;;;9.39;100.00
41898;BME280;27576;53.366;-1.498;2024-01-30T02:09:53;100267.34;;;9.46;100.00
41898;BME280;27576;53.366;-1.498;2024-01-30T02:12:19;100277.75;;;9.51;100.00
41898;BME280;27576;53.366;-1.498;2024-01-30T02:14:45;100295.16;;;9.59;100.00
41898;BME280;27576;53.366;-1.498;2024-01-30T02:17:11;100296.84;;;9.57;100.00
41898;BME280;27576;53.366;-1.498;2024-01-30T02:19:37;100295.06;;;9.53;100.00
41898;BME280;27576;53.366;-1.498;2024-01-30T02:22:03;100306.22;;;9.51;100.00
41898;BME280;27576;53.366;-1.498;2024-01-30T02:24:28;100294.81;;;9.38;100.00
41898;BME280;27576;53.366;-1.498;2024-01-30T02:26:53;100311.13;;;9.32;100.00
41898;BME280;27576;53.366;-1.498;2024-01-30T02:29:19;100282.28;;;9.08;100.00
41898;BME280;27576;53.366;-1.498;2024-01-30T02:31:44;100283.91;;;9.03;100.00
41898;BME280;27576;53.366;-1.498;2024-01-30T02:34:11;100301.09;;;9.01;100.00
41898;BME280;27576;53.366;-1.498;2024-01-30T02:36:36;100303.56;;;8.95;100.00
41898;BME280;27576;53.366;-1.498;2024-01-30T02:39:03;100294.72;;;8.82;100.00
41898;BME280;27576;53.366;-1.498;2024-01-30T02:41:28;100294.53;;;8.71;100.00
41898;BME280;27576;53.366;-1.498;2024-01-30T02:43:53;100260.41;;;8.42;100.00
41898;BME280;27576;53.366;-1.498;2024-01-30T02:46:19;100299.47;;;8.59;100.00
41898;BME280;27576;53.366;-1.498;2024-01-30T02:48:44;100304.63;;;8.57;100.00
41898;BME280;27576;53.366;-1.498;2024-01-30T02:51:09;100260.81;;;8.21;100.00
41898;BME280;27576;53.366;-1.498;2024-01-30T02:53:35;100282.38;;;8.22;100.00
41898;BME280;27576;53.366;-1.498;2024-01-30T02:56:02;100305.72;;;8.28;100.00
41898;BME280;27576;53.366;-1.498;2024-01-30T02:58:28;100284.78;;;8.14;100.00
41898;BME280;27576;53.366;-1.498;2024-01-30T03:00:53;100294.13;;;8.09;100.00
41898;BME280;27576;53.366;-1.498;2024-01-30T03:03:18;100292.16;;;7.97;100.00
41898;BME280;27576;53.366;-1.498;2024-01-30T03:05:44;100331.34;;;8.20;100.00
41898;BME280;27576;53.366;-1.498;2024-01-30T03:08:09;100304.25;;;7.98;100.00
41898;BME280;27576;53.366;-1.498;2024-01-30T03:10:35;100327.66;;;8.07;100.00
41898;BME280;27576;53.366;-1.498;2024-01-30T03:13:00;100329.22;;;8.01;100.00
41898;BME280;27576;53.366;-1.498;2024-01-30T03:15:26;100325.69;;;7.96;100.00
41898;BME280;27576;53.366;-1.498;2024-01-30T03:17:53;100316.88;;;7.86;100.00
41898;BME280;27576;53.366;-1.498;2024-01-30T03:20:18;100312.34;;;7.76;100.00
41898;BME280;27576;53.366;-1.498;2024-01-30T03:22:44;100299.25;;;7.67;100.00
41898;BME280;27576;53.366;-1.498;2024-01-30T03:25:09;100324.44;;;7.78;100.00
41898;BME280;27576;53.366;-1.498;2024-01-30T03:27:34;100300.00;;;7.62;100.00
41898;BME280;27576;53.366;-1.498;2024-01-30T03:30:00;100324.22;;;7.69;100.00
41898;BME280;27576;53.366;-1.498;2024-01-30T03:32:25;100320.63;;;7.62;100.00
41898;BME280;27576;53.366;-1.498;2024-01-30T03:34:50;100342.25;;;7.69;100.00
41898;BME280;27576;53.366;-1.498;2024-01-30T03:37:16;100370.81;;;7.77;100.00
41898;BME280;27576;53.366;-1.498;2024-01-30T03:39:41;100355.84;;;7.62;100.00
41898;BME280;27576;53.366;-1.498;2024-01-30T03:42:06;100353.34;;;7.65;100.00
41898;BME280;27576;53.366;-1.498;2024-01-30T03:44:32;100335.78;;;7.50;100.00
41898;BME280;27576;53.366;-1.498;2024-01-30T03:46:57;100365.94;;;7.53;100.00
41898;BME280;27576;53.366;-1.498;2024-01-30T03:49:23;100357.31;;;7.51;100.00
41898;BME280;27576;53.366;-1.498;2024-01-30T03:51:48;100350.28;;;7.45;100.00
41898;BME280;27576;53.366;-1.498;2024-01-30T03:54:14;100388.56;;;7.63;100.00
41898;BME280;27576;53.366;-1.498;2024-01-30T03:56:39;100388.38;;;7.55;100.00
41898;BME280;27576;53.366;-1.498;2024-01-30T03:59:06;100402.88;;;7.52;100.00
41898;BME280;27576;53.366;-1.498;2024-01-30T04:01:31;100388.56;;;7.30;100.00
41898;BME280;27576;53.366;-1.498;2024-01-30T04:03:56;100404.50;;;7.47;100.00
41898;BME280;27576;53.366;-1.498;2024-01-30T04:06:22;100386.88;;;7.30;100.00
41898;BME280;27576;53.366;-1.498;2024-01-30T04:08:47;100401.78;;;7.42;100.00
41898;BME280;27576;53.366;-1.498;2024-01-30T04:11:13;100388.75;;;7.36;100.00
41898;BME280;27576;53.366;-1.498;2024-01-30T04:13:38;100412.38;;;7.53;100.00
41898;BME280;27576;53.366;-1.498;2024-01-30T04:16:04;100429.50;;;7.51;100.00
41898;BME280;27576;53.366;-1.498;2024-01-30T04:18:29;100411.97;;;7.37;100.00
41898;BME280;27576;53.366;-1.498;2024-01-30T04:20:55;100406.59;;;7.28;100.00
41898;BME280;27576;53.366;-1.498;2024-01-30T04:23:21;100428.28;;;7.36;100.00
41898;BME280;27576;53.366;-1.498;2024-01-30T04:25:46;100399.44;;;7.18;100.00
41898;BME280;27576;53.366;-1.498;2024-01-30T04:28:12;100385.38;;;7.07;100.00
41898;BME280;27576;53.366;-1.498;2024-01-30T04:30:38;100447.22;;;7.38;100.00
41898;BME280;27576;53.366;-1.498;2024-01-30T04:33:03;100427.22;;;7.28;100.00
41898;BME280;27576;53.366;-1.498;2024-01-30T04:35:29;100454.03;;;7.35;100.00
41898;BME280;27576;53.366;-1.498;2024-01-30T04:37:54;100454.09;;;7.38;100.00
41898;BME280;27576;53.366;-1.498;2024-01-30T04:40:20;100441.81;;;7.28;100.00
41898;BME280;27576;53.366;-1.498;2024-01-30T04:42:46;100452.31;;;7.35;100.00
41898;BME280;27576;53.366;-1.498;2024-01-30T04:45:12;100430.44;;;7.21;100.00
41898;BME280;27576;53.366;-1.498;2024-01-30T04:47:37;100443.31;;;7.20;100.00
41898;BME280;27576;53.366;-1.498;2024-01-30T04:50:05;100444.84;;;7.13;100.00
41898;BME280;27576;53.366;-1.498;2024-01-30T04:52:31;100450.75;;;7.10;100.00
41898;BME280;27576;53.366;-1.498;2024-01-30T04:54:57;100470.03;;;7.23;100.00
41898;BME280;27576;53.366;-1.498;2024-01-30T04:57:22;100449.66;;;7.01;100.00
41898;BME280;27576;53.366;-1.498;2024-01-30T04:59:47;100466.19;;;7.09;100.00
41898;BME280;27576;53.366;-1.498;2024-01-30T05:02:13;100484.47;;;7.18;100.00
41898;BME280;27576;53.366;-1.498;2024-01-30T05:04:40;100445.78;;;6.85;100.00
41898;BME280;27576;53.366;-1.498;2024-01-30T05:07:06;100496.34;;;7.11;100.00
41898;BME280;27576;53.366;-1.498;2024-01-30T05:09:31;100507.53;;;7.12;100.00
41898;BME280;27576;53.366;-1.498;2024-01-30T05:11:57;100423.69;;;6.63;100.00
41898;BME280;27576;53.366;-1.498;2024-01-30T05:14:23;100506.69;;;7.13;100.00
41898;BME280;27576;53.366;-1.498;2024-01-30T05:16:49;100519.56;;;7.13;100.00
41898;BME280;27576;53.366;-1.498;2024-01-30T05:19:14;100472.31;;;6.82;100.00
41898;BME280;27576;53.366;-1.498;2024-01-30T05:21:41;100536.75;;;7.14;100.00
41898;BME280;27576;53.366;-1.498;2024-01-30T05:24:06;100529.88;;;7.13;100.00
41898;BME280;27576;53.366;-1.498;2024-01-30T05:26:32;100531.34;;;7.05;100.00
41898;BME280;27576;53.366;-1.498;2024-01-30T05:28:57;100519.03;;;6.95;100.00
41898;BME280;27576;53.366;-1.498;2024-01-30T05:31:23;100550.34;;;7.08;100.00
41898;BME280;27576;53.366;-1.498;2024-01-30T05:33:51;100564.13;;;7.09;100.00
41898;BME280;27576;53.366;-1.498;2024-01-30T05:36:16;100552.75;;;7.02;100.00
41898;BME280;27576;53.366;-1.498;2024-01-30T05:38:42;100558.72;;;7.01;100.00
41898;BME280;27576;53.366;-1.498;2024-01-30T05:41:08;100553.25;;;6.91;100.00
41898;BME280;27576;53.366;-1.498;2024-01-30T05:43:33;100578.00;;;7.14;100.00
41898;BME280;27576;53.366;-1.498;2024-01-30T05:45:59;100586.56;;;7.13;100.00
41898;BME280;27576;53.366;-1.498;2024-01-30T05:48:24;100565.53;;;6.99;100.00
41898;BME280;27576;53.366;-1.498;2024-01-30T05:50:49;100580.94;;;6.98;100.00
41898;BME280;27576;53.366;-1.498;2024-01-30T05:53:15;100573.03;;;6.92;100.00
41898;BME280;27576;53.366;-1.498;2024-01-30T05:55:40;100588.78;;;7.01;100.00
41898;BME280;27576;53.366;-1.498;2024-01-30T05:58:06;100593.00;;;6.99;100.00
41898;BME280;27576;53.366;-1.498;2024-01-30T06:00:31;100584.25;;;6.94;100.00
41898;BME280;27576;53.366;-1.498;2024-01-30T06:02:56;100602.44;;;6.98;100.00
41898;BME280;27576;53.366;-1.498;2024-01-30T06:05:22;100617.16;;;7.02;100.00
41898;BME280;27576;53.366;-1.498;2024-01-30T06:07:47;100602.06;;;6.86;100.00
41898;BME280;27576;53.366;-1.498;2024-01-30T06:10:13;100630.75;;;6.97;100.00
41898;BME280;27576;53.366;-1.498;2024-01-30T06:12:39;100626.94;;;6.85;100.00
41898;BME280;27576;53.366;-1.498;2024-01-30T06:15:05;100663.25;;;6.93;100.00
41898;BME280;27576;53.366;-1.498;2024-01-30T06:17:32;100637.53;;;6.68;100.00
41898;BME280;27576;53.366;-1.498;2024-01-30T06:19:57;100674.78;;;6.77;100.00
41898;BME280;27576;53.366;-1.498;2024-01-30T06:22:23;100686.09;;;6.82;100.00
41898;BME280;27576;53.366;-1.498;2024-01-30T06:24:48;100709.28;;;6.82;100.00
41898;BME280;27576;53.366;-1.498;2024-01-30T06:27:14;100695.16;;;6.71;100.00
41898;BME280;27576;53.366;-1.498;2024-01-30T06:29:40;100654.81;;;6.45;100.00
41898;BME280;27576;53.366;-1.498;2024-01-30T06:32:06;100676.38;;;6.48;100.00
41898;BME280;27576;53.366;-1.498;2024-01-30T06:34:32;100721.63;;;6.67;100.00
41898;BME280;27576;53.366;-1.498;2024-01-30T06:36:57;100666.38;;;6.32;100.00
41898;BME280;27576;53.366;-1.498;2024-01-30T06:39:22;100727.47;;;6.61;100.00
41898;BME280;27576;53.366;-1.498;2024-01-30T06:41:48;100713.50;;;6.55;100.00
41898;BME280;27576;53.366;-1.498;2024-01-30T06:44:13;100719.34;;;6.49;100.00
41898;BME280;27576;53.366;-1.498;2024-01-30T06:46:39;100722.63;;;6.45;100.00
41898;BME280;27576;53.366;-1.498;2024-01-30T06:49:04;100741.72;;;6.52;100.00
41898;BME280;27576;53.366;-1.498;2024-01-30T06:51:30;100724.00;;;6.35;100.00
41898;BME280;27576;53.366;-1.498;2024-01-30T06:53:56;100748.56;;;6.51;100.00
41898;BME280;27576;53.366;-1.498;2024-01-30T06:56:21;100749.84;;;6.38;100.00
41898;BME280;27576;53.366;-1.498;2024-01-30T06:58:48;100755.81;;;6.37;100.00
41898;BME280;27576;53.366;-1.498;2024-01-30T07:01:14;100731.88;;;6.16;100.00
41898;BME280;27576;53.366;-1.498;2024-01-30T07:03:39;100729.31;;;6.16;100.00
41898;BME280;27576;53.366;-1.498;2024-01-30T07:06:04;100739.72;;;6.19;100.00
41898;BME280;27576;53.366;-1.498;2024-01-30T07:08:30;100778.81;;;6.33;100.00
41898;BME280;27576;53.366;-1.498;2024-01-30T07:10:55;100743.75;;;6.12;100.00
41898;BME280;27576;53.366;-1.498;2024-01-30T07:13:21;100768.97;;;6.21;100.00
41898;BME280;27576;53.366;-1.498;2024-01-30T07:15:46;100797.75;;;6.35;100.00
41898;BME280;27576;53.366;-1.498;2024-01-30T07:18:12;100810.78;;;6.39;100.00
41898;BME280;27576;53.366;-1.498;2024-01-30T07:20:39;100784.28;;;6.18;100.00
41898;BME280;27576;53.366;-1.498;2024-01-30T07:23:13;100798.03;;;6.19;100.00
41898;BME280;27576;53.366;-1.498;2024-01-30T07:25:41;100826.91;;;6.34;100.00
41898;BME280;27576;53.366;-1.498;2024-01-30T07:28:09;100792.44;;;6.06;100.00
41898;BME280;27576;53.366;-1.498;2024-01-30T07:30:36;100837.91;;;6.30;100.00
41898;BME280;27576;53.366;-1.498;2024-01-30T07:33:01;100830.59;;;6.18;100.00
41898;BME280;27576;53.366;-1.498;2024-01-30T07:35:26;100807.47;;;5.96;100.00
41898;BME280;27576;53.366;-1.498;2024-01-30T07:37:52;100816.41;;;6.05;100.00
41898;BME280;27576;53.366;-1.498;2024-01-30T07:40:17;100837.25;;;6.13;100.00
41898;BME280;27576;53.366;-1.498;2024-01-30T07:42:43;100819.78;;;6.04;100.00
41898;BME280;27576;53.366;-1.498;2024-01-30T07:45:09;100844.31;;;6.17;100.00
41898;BME280;27576;53.366;-1.498;2024-01-30T07:47:34;100875.72;;;6.32;100.00
41898;BME280;27576;53.366;-1.498;2024-01-30T07:50:00;100842.94;;;6.04;100.00
41898;BME280;27576;53.366;-1.498;2024-01-30T07:52:25;100869.81;;;6.12;100.00
41898;BME280;27576;53.366;-1.498;2024-01-30T07:54:51;100896.72;;;6.21;100.00
41898;BME280;27576;53.366;-1.498;2024-01-30T07:57:18;100780.88;;;5.52;100.00
41898;BME280;27576;53.366;-1.498;2024-01-30T07:59:44;100901.88;;;6.21;100.00
41898;BME280;27576;53.366;-1.498;2024-01-30T08:02:10;100912.53;;;6.30;100.00
41898;BME280;27576;53.366;-1.498;2024-01-30T08:04:35;100920.13;;;6.27;100.00
41898;BME280;27576;53.366;-1.498;2024-01-30T08:07:01;100903.22;;;6.11;100.00
41898;BME280;27576;53.366;-1.498;2024-01-30T08:09:27;100850.13;;;5.70;100.00
41898;BME280;27576;53.366;-1.498;2024-01-30T08:11:52;100946.41;;;6.18;100.00
41898;BME280;27576;53.366;-1.498;2024-01-30T08:14:18;100946.31;;;6.17;100.00
41898;BME280;27576;53.366;-1.498;2024-01-30T08:16:43;100854.91;;;5.60;100.00
41898;BME280;27576;53.366;-1.498;2024-01-30T08:19:09;100935.56;;;6.04;100.00
41898;BME280;27576;53.366;-1.498;2024-01-30T08:21:34;100949.66;;;6.14;100.00
41898;BME280;27576;53.366;-1.498;2024-01-30T08:24:04;100963.59;;;6.19;100.00
41898;BME280;27576;53.366;-1.498;2024-01-30T08:26:31;100968.72;;;6.19;100.00
41898;BME280;27576;53.366;-1.498;2024-01-30T08:28:56;100981.47;;;6.16;100.00
41898;BME280;27576;53.366;-1.498;2024-01-30T08:31:22;100985.75;;;6.15;100.00
41898;BME280;27576;53.366;-1.498;2024-01-30T08:33:48;100993.53;;;6.17;100.00
41898;BME280;27576;53.366;-1.498;2024-01-30T08:36:13;100957.53;;;5.96;100.00
41898;BME280;27576;53.366;-1.498;2024-01-30T08:38:39;101000.31;;;6.15;100.00
41898;BME280;27576;53.366;-1.498;2024-01-30T08:41:04;101004.50;;;6.13;100.00
41898;BME280;27576;53.366;-1.498;2024-01-30T08:43:30;101006.63;;;6.23;100.00
41898;BME280;27576;53.366;-1.498;2024-01-30T08:45:59;101002.69;;;6.10;100.00
41898;BME280;27576;53.366;-1.498;2024-01-30T08:48:25;101031.63;;;6.26;100.00
41898;BME280;27576;53.366;-1.498;2024-01-30T08:50:50;101007.84;;;6.10;100.00
41898;BME280;27576;53.366;-1.498;2024-01-30T08:53:16;101002.44;;;6.04;100.00
41898;BME280;27576;53.366;-1.498;2024-01-30T08:55:41;101043.72;;;6.28;100.00
41898;BME280;27576;53.366;-1.498;2024-01-30T08:58:07;101017.38;;;6.13;100.00
41898;BME280;27576;53.366;-1.498;2024-01-30T09:00:33;101041.66;;;6.20;100.00
41898;BME280;27576;53.366;-1.498;2024-01-30T09:02:58;101041.34;;;6.12;100.00
41898;BME280;27576;53.366;-1.498;2024-01-30T09:05:24;101037.66;;;6.05;100.00
41898;BME280;27576;53.366;-1.498;2024-01-30T09:07:49;101067.22;;;6.15;100.00
41898;BME280;27576;53.366;-1.498;2024-01-30T09:10:14;101085.69;;;6.26;100.00
41898;BME280;27576;53.366;-1.498;2024-01-30T09:12:41;101069.66;;;6.12;100.00
41898;BME280;27576;53.366;-1.498;2024-01-30T09:15:07;101074.94;;;6.15;100.00
41898;BME280;27576;53.366;-1.498;2024-01-30T09:17:32;101095.19;;;6.28;100.00
41898;BME280;27576;53.366;-1.498;2024-01-30T09:19:58;101093.81;;;6.15;100.00
41898;BME280;27576;53.366;-1.498;2024-01-30T09:22:24;101102.16;;;6.10;100.00
41898;BME280;27576;53.366;-1.498;2024-01-30T09:24:49;101110.06;;;6.14;100.00
41898;BME280;27576;53.366;-1.498;2024-01-30T09:27:15;101132.88;;;6.26;100.00
41898;BME280;27576;53.366;-1.498;2024-01-30T09:29:40;101131.81;;;6.21;100.00
41898;BME280;27576;53.366;-1.498;2024-01-30T09:32:06;101135.19;;;6.20;100.00
41898;BME280;27576;53.366;-1.498;2024-01-30T09:34:32;101132.50;;;6.17;100.00
41898;BME280;27576;53.366;-1.498;2024-01-30T09:37:00;101134.25;;;6.18;100.00
41898;BME280;27576;53.366;-1.498;2024-01-30T09:39:26;101147.25;;;6.21;100.00
41898;BME280;27576;53.366;-1.498;2024-01-30T09:44:23;101168.16;;;6.29;100.00
41898;BME280;27576;53.366;-1.498;2024-01-30T09:46:50;101134.59;;;6.06;100.00
41898;BME280;27576;53.366;-1.498;2024-01-30T09:49:16;101179.44;;;6.32;100.00
41898;BME280;27576;53.366;-1.498;2024-01-30T09:51:44;101177.56;;;6.28;100.00
41898;BME280;27576;53.366;-1.498;2024-01-30T09:54:13;101180.94;;;6.27;100.00
41898;BME280;27576;53.366;-1.498;2024-01-30T09:56:39;101167.84;;;6.21;100.00
41898;BME280;27576;53.366;-1.498;2024-01-30T09:59:04;101191.97;;;6.25;100.00
41898;BME280;27576;53.366;-1.498;2024-01-30T10:01:30;101203.44;;;6.31;100.00
41898;BME280;27576;53.366;-1.498;2024-01-30T10:03:56;101210.22;;;6.29;100.00
41898;BME280;27576;53.366;-1.498;2024-01-30T10:06:22;101193.69;;;6.24;100.00
41898;BME280;27576;53.366;-1.498;2024-01-30T10:08:49;101191.00;;;6.21;100.00
41898;BME280;27576;53.366;-1.498;2024-01-30T10:11:15;101227.94;;;6.43;100.00
41898;BME280;27576;53.366;-1.498;2024-01-30T10:13:40;101209.78;;;6.39;100.00
41898;BME280;27576;53.366;-1.498;2024-01-30T10:16:06;101190.38;;;6.27;100.00
41898;BME280;27576;53.366;-1.498;2024-01-30T10:18:32;101198.56;;;6.37;100.00
41898;BME280;27576;53.366;-1.498;2024-01-30T10:20:59;101218.09;;;6.53;100.00
41898;BME280;27576;53.366;-1.498;2024-01-30T10:23:24;101200.50;;;6.43;100.00
41898;BME280;27576;53.366;-1.498;2024-01-30T10:25:51;101243.91;;;6.76;100.00
41898;BME280;27576;53.366;-1.498;2024-01-30T10:28:17;101240.38;;;6.72;100.00
41898;BME280;27576;53.366;-1.498;2024-01-30T10:30:43;101257.25;;;6.86;100.00
41898;BME280;27576;53.366;-1.498;2024-01-30T10:33:08;101253.63;;;6.81;100.00
41898;BME280;27576;53.366;-1.498;2024-01-30T10:35:34;101267.81;;;6.93;100.00
41898;BME280;27576;53.366;-1.498;2024-01-30T10:38:00;101280.16;;;7.00;100.00
41898;BME280;27576;53.366;-1.498;2024-01-30T10:40:28;101279.19;;;6.98;100.00
41898;BME280;27576;53.366;-1.498;2024-01-30T10:42:55;101263.53;;;6.93;100.00
41898;BME280;27576;53.366;-1.498;2024-01-30T10:45:22;101294.41;;;7.12;100.00
41898;BME280;27576;53.366;-1.498;2024-01-30T10:47:53;101278.63;;;7.05;100.00
41898;BME280;27576;53.366;-1.498;2024-01-30T10:50:20;101264.69;;;7.00;100.00
41898;BME280;27576;53.366;-1.498;2024-01-30T10:52:46;101273.34;;;7.02;100.00
41898;BME280;27576;53.366;-1.498;2024-01-30T10:55:13;101292.75;;;7.14;100.00
41898;BME280;27576;53.366;-1.498;2024-01-30T10:57:40;101316.44;;;7.27;100.00
41898;BME280;27576;53.366;-1.498;2024-01-30T11:00:13;101325.00;;;7.26;100.00
41898;BME280;27576;53.366;-1.498;2024-01-30T11:02:42;101295.97;;;7.09;100.00
41898;BME280;27576;53.366;-1.498;2024-01-30T11:05:09;101285.41;;;7.03;100.00
41898;BME280;27576;53.366;-1.498;2024-01-30T11:07:35;101331.13;;;7.28;100.00
41898;BME280;27576;53.366;-1.498;2024-01-30T11:10:02;101341.84;;;7.38;100.00
41898;BME280;27576;53.366;-1.498;2024-01-30T11:12:30;101327.34;;;7.41;100.00
41898;BME280;27576;53.366;-1.498;2024-01-30T11:15:02;101333.41;;;7.43;100.00
41898;BME280;27576;53.366;-1.498;2024-01-30T11:17:40;101322.38;;;7.45;100.00
41898;BME280;27576;53.366;-1.498;2024-01-30T11:20:10;101328.66;;;7.52;100.00
41898;BME280;27576;53.366;-1.498;2024-01-30T11:22:35;101340.97;;;7.59;100.00
41898;BME280;27576;53.366;-1.498;2024-01-30T11:25:01;101350.81;;;7.69;100.00
41898;BME280;27576;53.366;-1.498;2024-01-30T11:27:29;101316.47;;;7.48;100.00
41898;BME280;27576;53.366;-1.498;2024-01-30T11:30:01;101347.31;;;7.67;100.00
41898;BME280;27576;53.366;-1.498;2024-01-30T11:32:27;101355.25;;;7.72;100.00
41898;BME280;27576;53.366;-1.498;2024-01-30T11:34:54;101338.75;;;7.68;100.00
41898;BME280;27576;53.366;-1.498;2024-01-30T11:37:20;101345.09;;;7.76;100.00
41898;BME280;27576;53.366;-1.498;2024-01-30T11:39:48;101366.91;;;7.84;100.00
41898;BME280;27576;53.366;-1.498;2024-01-30T11:42:13;101367.63;;;7.80;100.00
41898;BME280;27576;53.366;-1.498;2024-01-30T11:44:39;101347.06;;;7.61;100.00
41898;BME280;27576;53.366;-1.498;2024-01-30T11:47:05;101357.50;;;7.64;100.00
41898;BME280;27576;53.366;-1.498;2024-01-30T11:49:30;101379.47;;;7.75;100.00
41898;BME280;27576;53.366;-1.498;2024-01-30T11:51:56;101339.66;;;7.48;100.00
41898;BME280;27576;53.366;-1.498;2024-01-30T11:54:22;101374.69;;;7.63;100.00
41898;BME280;27576;53.366;-1.498;2024-01-30T11:56:47;101386.81;;;7.66;100.00
41898;BME280;27576;53.366;-1.498;2024-01-30T11:59:13;101368.91;;;7.48;100.00
41898;BME280;27576;53.366;-1.498;2024-01-30T12:01:39;101381.25;;;7.55;100.00
41898;BME280;27576;53.366;-1.498;2024-01-30T12:04:04;101382.28;;;7.60;100.00
41898;BME280;27576;53.366;-1.498;2024-01-30T12:06:34;101359.59;;;7.52;100.00
41898;BME280;27576;53.366;-1.498;2024-01-30T12:09:00;101389.09;;;7.79;100.00
41898;BME280;27576;53.366;-1.498;2024-01-30T12:11:29;101352.22;;;7.61;100.00
41898;BME280;27576;53.366;-1.498;2024-01-30T12:13:55;101395.28;;;7.84;100.00
41898;BME280;27576;53.366;-1.498;2024-01-30T12:16:21;101373.91;;;7.66;100.00
41898;BME280;27576;53.366;-1.498;2024-01-30T12:18:48;101393.28;;;7.77;100.00
41898;BME280;27576;53.366;-1.498;2024-01-30T12:21:16;101408.19;;;7.84;100.00
41898;BME280;27576;53.366;-1.498;2024-01-30T12:23:42;101380.47;;;7.79;100.00
41898;BME280;27576;53.366;-1.498;2024-01-30T12:26:08;101410.34;;;7.95;100.00
41898;BME280;27576;53.366;-1.498;2024-01-30T12:28:33;101415.41;;;7.93;100.00
41898;BME280;27576;53.366;-1.498;2024-01-30T12:31:04;101417.59;;;7.82;100.00
41898;BME280;27576;53.366;-1.498;2024-01-30T12:33:30;101404.06;;;7.67;100.00
41898;BME280;27576;53.366;-1.498;2024-01-30T12:35:57;101402.88;;;7.59;100.00